Terminal Aerodrome Forecast
Issued by NWS Sioux Falls, SD

Home | Current Version | Previous Version | Text Only | Print | Product List | Glossary On
Versions: 1 2 3 4 5 6 7 8 9 10 11 12 13 14 15 16 17 18 19 20 21 22 23 24 25 26 27 28 29 30 31 32 33
000
FTUS43 KFSD 251137 CCA
TAFSUX
TAF COR
KSUX 251137Z 2512/2612 23005KT P6SM BKN080
     FM251500 17006KT P6SM BKN200
     FM251800 17013KT P6SM BKN200
     FM260200 16010KT 6SM -RASN OVC025
     FM260500 17008KT 2SM -SN OVC015
     FM260900 30013KT 3SM -SN OVC010=

USA.gov is the U.S. government's official web portal to all federal, state and local government web resources and services.